Terminal Aerodrome Forecast
Issued by NWS

Home | Current Version | Previous Version | Text Only | Print | Product List | Glossary On
Versions: 1 2 3 4 5 6 7 8 9 10 11 12 13 14 15 16 17 18 19 20
966
FTUS44 KCRP 241742
TAFLRD
TAF
KLRD 241742Z 2418/2518 14012KT P6SM BKN025 OVC050
      TEMPO 2419/2421 SCT025 BKN050
     FM242100 13014G21KT P6SM BKN050
     FM250200 12014KT P6SM SCT040 BKN200
     FM250900 12010KT P6SM BKN015
     FM251600 16014KT P6SM BKN025=

USA.gov is the U.S. government's official web portal to all federal, state and local government web resources and services.